sensor_id;sensor_type;location;lat;lon;timestamp;temperature;humidity
19340;HTU21D;9804;52.350;6.684;2023-03-14T00:00:28;13.84;-6.00
19340;HTU21D;9804;52.350;6.684;2023-03-14T00:02:53;13.73;-6.00
19340;HTU21D;9804;52.350;6.684;2023-03-14T00:05:19;13.56;-6.00
19340;HTU21D;9804;52.350;6.684;2023-03-14T00:07:44;13.85;-6.00
19340;HTU21D;9804;52.350;6.684;2023-03-14T00:10:12;13.64;-6.00
19340;HTU21D;9804;52.350;6.684;2023-03-14T00:12:39;13.75;-6.00
19340;HTU21D;9804;52.350;6.684;2023-03-14T00:15:05;13.66;-6.00
19340;HTU21D;9804;52.350;6.684;2023-03-14T00:17:32;13.94;-6.00
19340;HTU21D;9804;52.350;6.684;2023-03-14T00:19:58;13.95;-6.00
19340;HTU21D;9804;52.350;6.684;2023-03-14T00:22:30;14.03;-6.00
19340;HTU21D;9804;52.350;6.684;2023-03-14T00:24:56;13.91;-6.00
19340;HTU21D;9804;52.350;6.684;2023-03-14T00:27:21;14.01;-6.00
19340;HTU21D;9804;52.350;6.684;2023-03-14T00:29:47;14.04;-6.00
19340;HTU21D;9804;52.350;6.684;2023-03-14T00:32:12;13.93;-6.00
19340;HTU21D;9804;52.350;6.684;2023-03-14T00:34:38;14.04;-6.00
19340;HTU21D;9804;52.350;6.684;2023-03-14T00:37:03;14.05;-6.00
19340;HTU21D;9804;52.350;6.684;2023-03-14T00:39:29;14.08;-6.00
19340;HTU21D;9804;52.350;6.684;2023-03-14T00:41:54;14.01;-6.00
19340;HTU21D;9804;52.350;6.684;2023-03-14T00:44:19;14.05;-6.00
19340;HTU21D;9804;52.350;6.684;2023-03-14T00:46:45;14.01;-6.00
19340;HTU21D;9804;52.350;6.684;2023-03-14T00:49:10;14.08;-6.00
19340;HTU21D;9804;52.350;6.684;2023-03-14T00:51:35;14.06;-6.00
19340;HTU21D;9804;52.350;6.684;2023-03-14T00:54:01;14.08;-6.00
19340;HTU21D;9804;52.350;6.684;2023-03-14T00:56:26;14.14;-6.00
19340;HTU21D;9804;52.350;6.684;2023-03-14T00:58:55;14.14;-6.00
19340;HTU21D;9804;52.350;6.684;2023-03-14T01:01:21;14.28;-6.00
19340;HTU21D;9804;52.350;6.684;2023-03-14T01:03:47;14.23;-6.00
19340;HTU21D;9804;52.350;6.684;2023-03-14T01:06:24;14.22;-6.00
19340;HTU21D;9804;52.350;6.684;2023-03-14T01:08:50;14.18;-6.00
19340;HTU21D;9804;52.350;6.684;2023-03-14T01:11:25;14.03;-6.00
19340;HTU21D;9804;52.350;6.684;2023-03-14T01:13:51;14.21;-6.00
19340;HTU21D;9804;52.350;6.684;2023-03-14T01:16:18;14.09;-6.00
19340;HTU21D;9804;52.350;6.684;2023-03-14T01:18:45;13.85;-6.00
19340;HTU21D;9804;52.350;6.684;2023-03-14T01:21:17;13.70;-6.00
19340;HTU21D;9804;52.350;6.684;2023-03-14T01:23:44;13.65;-6.00
19340;HTU21D;9804;52.350;6.684;2023-03-14T01:26:11;13.58;-6.00
19340;HTU21D;9804;52.350;6.684;2023-03-14T01:28:37;13.34;-6.00
19340;HTU21D;9804;52.350;6.684;2023-03-14T01:31:04;13.24;-6.00
19340;HTU21D;9804;52.350;6.684;2023-03-14T01:33:30;13.19;-6.00
19340;HTU21D;9804;52.350;6.684;2023-03-14T01:35:55;13.10;-6.00
19340;HTU21D;9804;52.350;6.684;2023-03-14T01:38:20;13.10;-6.00
19340;HTU21D;9804;52.350;6.684;2023-03-14T01:40:46;13.18;-6.00
19340;HTU21D;9804;52.350;6.684;2023-03-14T01:43:17;13.30;-6.00
19340;HTU21D;9804;52.350;6.684;2023-03-14T01:48:43;13.15;-6.00
19340;HTU21D;9804;52.350;6.684;2023-03-14T01:51:14;13.16;-6.00
19340;HTU21D;9804;52.350;6.684;2023-03-14T01:53:42;13.12;-6.00
19340;HTU21D;9804;52.350;6.684;2023-03-14T01:56:11;13.23;-6.00
19340;HTU21D;9804;52.350;6.684;2023-03-14T01:58:39;13.31;-6.00
19340;HTU21D;9804;52.350;6.684;2023-03-14T02:01:06;13.23;-6.00
19340;HTU21D;9804;52.350;6.684;2023-03-14T02:03:37;13.16;-6.00
19340;HTU21D;9804;52.350;6.684;2023-03-14T02:06:06;13.18;-6.00
19340;HTU21D;9804;52.350;6.684;2023-03-14T02:08:33;13.04;-6.00
19340;HTU21D;9804;52.350;6.684;2023-03-14T02:11:00;13.32;-6.00
19340;HTU21D;9804;52.350;6.684;2023-03-14T02:13:25;13.23;-6.00
19340;HTU21D;9804;52.350;6.684;2023-03-14T02:15:51;13.07;-6.00
19340;HTU21D;9804;52.350;6.684;2023-03-14T02:18:17;13.21;-6.00
19340;HTU21D;9804;52.350;6.684;2023-03-14T02:21:16;13.32;-6.00
19340;HTU21D;9804;52.350;6.684;2023-03-14T02:26:30;12.84;-6.00
19340;HTU21D;9804;52.350;6.684;2023-03-14T02:28:57;13.00;-6.00
19340;HTU21D;9804;52.350;6.684;2023-03-14T02:31:23;12.94;-6.00
19340;HTU21D;9804;52.350;6.684;2023-03-14T02:33:49;12.79;-6.00
19340;HTU21D;9804;52.350;6.684;2023-03-14T02:36:14;12.51;-6.00
19340;HTU21D;9804;52.350;6.684;2023-03-14T02:38:51;12.53;-6.00
19340;HTU21D;9804;52.350;6.684;2023-03-14T02:41:18;12.41;-6.00
19340;HTU21D;9804;52.350;6.684;2023-03-14T02:43:44;12.45;-6.00
19340;HTU21D;9804;52.350;6.684;2023-03-14T02:46:14;12.06;-6.00
19340;HTU21D;9804;52.350;6.684;2023-03-14T02:48:46;11.99;-6.00
19340;HTU21D;9804;52.350;6.684;2023-03-14T02:51:13;12.12;-6.00
19340;HTU21D;9804;52.350;6.684;2023-03-14T02:53:39;12.11;-6.00
19340;HTU21D;9804;52.350;6.684;2023-03-14T02:56:07;11.99;-6.00
19340;HTU21D;9804;52.350;6.684;2023-03-14T02:58:33;11.89;-6.00
19340;HTU21D;9804;52.350;6.684;2023-03-14T03:00:58;12.05;-6.00
19340;HTU21D;9804;52.350;6.684;2023-03-14T03:03:24;12.08;-6.00
19340;HTU21D;9804;52.350;6.684;2023-03-14T03:05:51;12.02;-6.00
19340;HTU21D;9804;52.350;6.684;2023-03-14T03:08:20;11.99;-6.00
19340;HTU21D;9804;52.350;6.684;2023-03-14T03:10:46;12.04;-6.00
19340;HTU21D;9804;52.350;6.684;2023-03-14T03:13:11;11.99;-6.00
19340;HTU21D;9804;52.350;6.684;2023-03-14T03:15:37;12.00;-6.00
19340;HTU21D;9804;52.350;6.684;2023-03-14T03:18:03;12.06;-6.00
19340;HTU21D;9804;52.350;6.684;2023-03-14T03:20:28;11.92;-6.00
19340;HTU21D;9804;52.350;6.684;2023-03-14T03:22:53;12.16;-6.00
19340;HTU21D;9804;52.350;6.684;2023-03-14T03:25:19;11.92;-6.00
19340;HTU21D;9804;52.350;6.684;2023-03-14T03:27:44;12.03;-6.00
19340;HTU21D;9804;52.350;6.684;2023-03-14T03:30:10;11.84;-6.00
19340;HTU21D;9804;52.350;6.684;2023-03-14T03:32:36;11.91;-6.00
19340;HTU21D;9804;52.350;6.684;2023-03-14T03:35:03;11.85;-6.00
19340;HTU21D;9804;52.350;6.684;2023-03-14T03:37:30;11.71;-6.00
19340;HTU21D;9804;52.350;6.684;2023-03-14T03:39:56;11.68;-6.00
19340;HTU21D;9804;52.350;6.684;2023-03-14T03:42:21;11.69;-6.00
19340;HTU21D;9804;52.350;6.684;2023-03-14T03:44:46;11.64;-6.00
19340;HTU21D;9804;52.350;6.684;2023-03-14T03:47:12;11.81;-6.00
19340;HTU21D;9804;52.350;6.684;2023-03-14T03:49:38;11.86;-6.00
19340;HTU21D;9804;52.350;6.684;2023-03-14T03:52:03;11.83;-6.00
19340;HTU21D;9804;52.350;6.684;2023-03-14T03:54:28;11.81;-6.00
19340;HTU21D;9804;52.350;6.684;2023-03-14T03:56:54;11.77;-6.00
19340;HTU21D;9804;52.350;6.684;2023-03-14T03:59:20;11.69;-6.00
19340;HTU21D;9804;52.350;6.684;2023-03-14T04:01:46;11.69;-6.00
19340;HTU21D;9804;52.350;6.684;2023-03-14T04:04:11;11.87;-6.00
19340;HTU21D;9804;52.350;6.684;2023-03-14T04:06:37;11.62;-6.00
19340;HTU21D;9804;52.350;6.684;2023-03-14T04:09:03;11.75;-6.00
19340;HTU21D;9804;52.350;6.684;2023-03-14T04:11:28;11.78;-6.00
19340;HTU21D;9804;52.350;6.684;2023-03-14T04:13:54;11.73;-6.00
19340;HTU21D;9804;52.350;6.684;2023-03-14T04:16:22;11.86;-6.00
19340;HTU21D;9804;52.350;6.684;2023-03-14T04:18:47;11.63;-6.00
19340;HTU21D;9804;52.350;6.684;2023-03-14T04:21:13;11.77;-6.00
19340;HTU21D;9804;52.350;6.684;2023-03-14T04:23:39;11.81;-6.00
19340;HTU21D;9804;52.350;6.684;2023-03-14T04:26:04;11.87;-6.00
19340;HTU21D;9804;52.350;6.684;2023-03-14T04:28:30;11.73;-6.00
19340;HTU21D;9804;52.350;6.684;2023-03-14T04:30:55;11.74;-6.00
19340;HTU21D;9804;52.350;6.684;2023-03-14T04:33:21;11.69;-6.00
19340;HTU21D;9804;52.350;6.684;2023-03-14T04:35:47;11.78;-6.00
19340;HTU21D;9804;52.350;6.684;2023-03-14T04:38:13;11.72;-6.00
19340;HTU21D;9804;52.350;6.684;2023-03-14T04:40:41;11.73;-6.00
19340;HTU21D;9804;52.350;6.684;2023-03-14T04:43:11;11.66;-6.00
19340;HTU21D;9804;52.350;6.684;2023-03-14T04:45:40;11.90;-6.00
19340;HTU21D;9804;52.350;6.684;2023-03-14T04:48:06;11.97;-6.00
19340;HTU21D;9804;52.350;6.684;2023-03-14T04:50:31;11.98;-6.00
19340;HTU21D;9804;52.350;6.684;2023-03-14T04:52:57;11.85;-6.00
19340;HTU21D;9804;52.350;6.684;2023-03-14T04:55:22;11.78;-6.00
19340;HTU21D;9804;52.350;6.684;2023-03-14T04:57:47;11.79;-6.00
19340;HTU21D;9804;52.350;6.684;2023-03-14T05:00:13;11.79;-6.00
19340;HTU21D;9804;52.350;6.684;2023-03-14T05:02:38;11.88;-6.00
19340;HTU21D;9804;52.350;6.684;2023-03-14T05:05:04;11.78;-6.00
19340;HTU21D;9804;52.350;6.684;2023-03-14T05:07:29;11.76;-6.00
19340;HTU21D;9804;52.350;6.684;2023-03-14T05:09:55;11.73;-6.00
19340;HTU21D;9804;52.350;6.684;2023-03-14T05:12:20;11.81;-6.00
19340;HTU21D;9804;52.350;6.684;2023-03-14T05:14:46;11.84;-6.00
19340;HTU21D;9804;52.350;6.684;2023-03-14T05:17:11;11.87;-6.00
19340;HTU21D;9804;52.350;6.684;2023-03-14T05:19:40;11.96;-6.00
19340;HTU21D;9804;52.350;6.684;2023-03-14T05:22:05;12.11;-6.00
19340;HTU21D;9804;52.350;6.684;2023-03-14T05:24:30;11.89;-6.00
19340;HTU21D;9804;52.350;6.684;2023-03-14T05:26:56;11.89;-6.00
19340;HTU21D;9804;52.350;6.684;2023-03-14T05:29:21;11.90;-6.00
19340;HTU21D;9804;52.350;6.684;2023-03-14T05:31:46;11.87;-6.00
19340;HTU21D;9804;52.350;6.684;2023-03-14T05:34:12;12.00;-6.00
19340;HTU21D;9804;52.350;6.684;2023-03-14T05:36:38;11.94;-6.00
19340;HTU21D;9804;52.350;6.684;2023-03-14T05:39:03;11.77;-6.00
19340;HTU21D;9804;52.350;6.684;2023-03-14T05:41:28;11.88;-6.00
19340;HTU21D;9804;52.350;6.684;2023-03-14T05:43:54;11.88;-6.00
19340;HTU21D;9804;52.350;6.684;2023-03-14T05:46:19;11.87;-6.00
19340;HTU21D;9804;52.350;6.684;2023-03-14T05:48:45;11.89;-6.00
19340;HTU21D;9804;52.350;6.684;2023-03-14T05:51:10;11.83;-6.00
19340;HTU21D;9804;52.350;6.684;2023-03-14T05:53:35;11.82;-6.00
19340;HTU21D;9804;52.350;6.684;2023-03-14T05:56:01;11.71;-6.00
19340;HTU21D;9804;52.350;6.684;2023-03-14T05:58:27;11.73;-6.00
19340;HTU21D;9804;52.350;6.684;2023-03-14T06:00:52;11.96;-6.00
19340;HTU21D;9804;52.350;6.684;2023-03-14T06:03:18;11.82;-6.00
19340;HTU21D;9804;52.350;6.684;2023-03-14T06:05:43;11.78;-6.00
19340;HTU21D;9804;52.350;6.684;2023-03-14T06:08:08;11.82;-6.00
19340;HTU21D;9804;52.350;6.684;2023-03-14T06:10:35;11.67;-6.00
19340;HTU21D;9804;52.350;6.684;2023-03-14T06:13:01;11.85;-6.00
19340;HTU21D;9804;52.350;6.684;2023-03-14T06:15:26;11.92;-6.00
19340;HTU21D;9804;52.350;6.684;2023-03-14T06:17:54;11.97;-6.00
19340;HTU21D;9804;52.350;6.684;2023-03-14T06:20:19;12.07;-6.00
19340;HTU21D;9804;52.350;6.684;2023-03-14T06:22:44;12.05;-6.00
19340;HTU21D;9804;52.350;6.684;2023-03-14T06:25:10;12.18;-6.00
19340;HTU21D;9804;52.350;6.684;2023-03-14T06:27:35;12.26;-6.00
19340;HTU21D;9804;52.350;6.684;2023-03-14T06:30:01;12.10;-6.00
19340;HTU21D;9804;52.350;6.684;2023-03-14T06:32:26;12.11;-6.00
19340;HTU21D;9804;52.350;6.684;2023-03-14T06:34:52;12.19;-6.00
19340;HTU21D;9804;52.350;6.684;2023-03-14T06:37:18;11.91;-6.00
19340;HTU21D;9804;52.350;6.684;2023-03-14T06:39:43;11.86;-6.00
19340;HTU21D;9804;52.350;6.684;2023-03-14T06:42:10;11.96;-6.00
19340;HTU21D;9804;52.350;6.684;2023-03-14T06:44:35;12.04;-6.00
19340;HTU21D;9804;52.350;6.684;2023-03-14T06:47:01;12.06;-6.00
19340;HTU21D;9804;52.350;6.684;2023-03-14T06:49:26;11.90;-6.00
19340;HTU21D;9804;52.350;6.684;2023-03-14T06:51:51;11.89;-6.00
19340;HTU21D;9804;52.350;6.684;2023-03-14T06:54:17;11.94;-6.00
19340;HTU21D;9804;52.350;6.684;2023-03-14T06:56:42;11.77;-6.00
19340;HTU21D;9804;52.350;6.684;2023-03-14T06:59:07;11.89;-6.00
19340;HTU21D;9804;52.350;6.684;2023-03-14T07:01:33;11.85;-6.00
19340;HTU21D;9804;52.350;6.684;2023-03-14T07:04:00;11.97;-6.00
19340;HTU21D;9804;52.350;6.684;2023-03-14T07:06:25;11.92;-6.00
19340;HTU21D;9804;52.350;6.684;2023-03-14T07:08:51;11.93;-6.00
19340;HTU21D;9804;52.350;6.684;2023-03-14T07:11:16;12.02;-6.00
19340;HTU21D;9804;52.350;6.684;2023-03-14T07:13:42;11.92;-6.00
19340;HTU21D;9804;52.350;6.684;2023-03-14T07:16:08;12.03;-6.00
19340;HTU21D;9804;52.350;6.684;2023-03-14T07:18:34;12.05;-6.00
19340;HTU21D;9804;52.350;6.684;2023-03-14T07:20:59;11.99;-6.00
19340;HTU21D;9804;52.350;6.684;2023-03-14T07:23:25;12.01;-6.00
19340;HTU21D;9804;52.350;6.684;2023-03-14T07:25:50;12.19;-6.00
19340;HTU21D;9804;52.350;6.684;2023-03-14T07:28:16;12.14;-6.00
19340;HTU21D;9804;52.350;6.684;2023-03-14T07:30:42;12.15;-6.00
19340;HTU21D;9804;52.350;6.684;2023-03-14T07:33:08;12.07;-6.00
19340;HTU21D;9804;52.350;6.684;2023-03-14T07:35:33;12.21;-6.00
19340;HTU21D;9804;52.350;6.684;2023-03-14T07:37:58;11.89;-6.00
19340;HTU21D;9804;52.350;6.684;2023-03-14T07:40:24;12.04;-6.00
19340;HTU21D;9804;52.350;6.684;2023-03-14T07:42:49;12.02;-6.00
19340;HTU21D;9804;52.350;6.684;2023-03-14T07:45:15;12.20;-6.00
19340;HTU21D;9804;52.350;6.684;2023-03-14T07:47:40;12.07;-6.00
19340;HTU21D;9804;52.350;6.684;2023-03-14T07:50:06;12.13;-6.00
19340;HTU21D;9804;52.350;6.684;2023-03-14T07:52:32;12.28;-6.00
19340;HTU21D;9804;52.350;6.684;2023-03-14T07:54:57;12.21;-6.00
19340;HTU21D;9804;52.350;6.684;2023-03-14T07:57:23;12.11;-6.00
19340;HTU21D;9804;52.350;6.684;2023-03-14T07:59:49;12.00;-6.00
19340;HTU21D;9804;52.350;6.684;2023-03-14T08:02:14;11.68;-6.00
19340;HTU21D;9804;52.350;6.684;2023-03-14T08:04:40;10.87;-6.00
19340;HTU21D;9804;52.350;6.684;2023-03-14T08:07:06;10.67;-6.00
19340;HTU21D;9804;52.350;6.684;2023-03-14T08:09:31;10.34;-6.00
19340;HTU21D;9804;52.350;6.684;2023-03-14T08:11:57;10.58;-6.00
19340;HTU21D;9804;52.350;6.684;2023-03-14T08:14:22;10.59;-6.00
19340;HTU21D;9804;52.350;6.684;2023-03-14T08:16:50;10.28;-6.00
19340;HTU21D;9804;52.350;6.684;2023-03-14T08:19:16;10.42;-6.00
19340;HTU21D;9804;52.350;6.684;2023-03-14T08:21:41;10.28;-6.00
19340;HTU21D;9804;52.350;6.684;2023-03-14T08:24:07;10.34;-6.00
19340;HTU21D;9804;52.350;6.684;2023-03-14T08:26:32;10.15;-6.00
19340;HTU21D;9804;52.350;6.684;2023-03-14T08:28:58;10.41;-6.00
19340;HTU21D;9804;52.350;6.684;2023-03-14T08:31:23;10.15;-6.00
19340;HTU21D;9804;52.350;6.684;2023-03-14T08:33:48;10.36;-6.00
19340;HTU21D;9804;52.350;6.684;2023-03-14T08:36:14;10.22;-6.00
19340;HTU21D;9804;52.350;6.684;2023-03-14T08:38:39;10.34;-6.00
19340;HTU21D;9804;52.350;6.684;2023-03-14T08:41:08;10.15;-6.00
19340;HTU21D;9804;52.350;6.684;2023-03-14T08:43:33;10.07;-6.00
19340;HTU21D;9804;52.350;6.684;2023-03-14T08:46:00;9.68;-6.00
19340;HTU21D;9804;52.350;6.684;2023-03-14T08:48:25;9.97;-6.00
19340;HTU21D;9804;52.350;6.684;2023-03-14T08:50:51;9.96;-6.00
19340;HTU21D;9804;52.350;6.684;2023-03-14T08:53:16;9.67;-6.00
19340;HTU21D;9804;52.350;6.684;2023-03-14T08:55:42;8.96;-6.00
19340;HTU21D;9804;52.350;6.684;2023-03-14T08:58:07;9.00;-6.00
19340;HTU21D;9804;52.350;6.684;2023-03-14T09:00:32;8.83;-6.00
19340;HTU21D;9804;52.350;6.684;2023-03-14T09:02:58;8.86;-6.00
19340;HTU21D;9804;52.350;6.684;2023-03-14T09:05:23;8.77;-6.00
19340;HTU21D;9804;52.350;6.684;2023-03-14T09:07:48;8.28;-6.00
19340;HTU21D;9804;52.350;6.684;2023-03-14T09:10:14;8.32;-6.00
19340;HTU21D;9804;52.350;6.684;2023-03-14T09:12:39;8.38;-6.00
19340;HTU21D;9804;52.350;6.684;2023-03-14T09:15:05;8.12;-6.00
19340;HTU21D;9804;52.350;6.684;2023-03-14T09:17:31;8.01;-6.00
19340;HTU21D;9804;52.350;6.684;2023-03-14T09:19:56;8.34;-6.00
19340;HTU21D;9804;52.350;6.684;2023-03-14T09:22:22;8.38;-6.00
19340;HTU21D;9804;52.350;6.684;2023-03-14T09:24:47;8.05;-6.00
19340;HTU21D;9804;52.350;6.684;2023-03-14T09:27:13;7.84;-6.00
19340;HTU21D;9804;52.350;6.684;2023-03-14T09:29:38;8.04;-6.00
19340;HTU21D;9804;52.350;6.684;2023-03-14T09:32:03;8.01;-6.00
19340;HTU21D;9804;52.350;6.684;2023-03-14T09:34:29;8.48;-6.00
19340;HTU21D;9804;52.350;6.684;2023-03-14T09:36:54;8.65;-6.00
19340;HTU21D;9804;52.350;6.684;2023-03-14T09:39:19;8.37;-6.00
19340;HTU21D;9804;52.350;6.684;2023-03-14T09:41:51;8.66;-6.00
19340;HTU21D;9804;52.350;6.684;2023-03-14T09:44:29;8.68;-6.00
19340;HTU21D;9804;52.350;6.684;2023-03-14T09:46:58;8.56;-6.00
19340;HTU21D;9804;52.350;6.684;2023-03-14T09:49:34;8.56;-6.00
19340;HTU21D;9804;52.350;6.684;2023-03-14T09:52:02;8.56;-6.00
19340;HTU21D;9804;52.350;6.684;2023-03-14T09:54:31;8.53;-6.00
19340;HTU21D;9804;52.350;6.684;2023-03-14T09:56:57;8.57;-6.00
19340;HTU21D;9804;52.350;6.684;2023-03-14T09:59:22;8.64;-6.00
19340;HTU21D;9804;52.350;6.684;2023-03-14T10:01:48;8.62;-6.00
19340;HTU21D;9804;52.350;6.684;2023-03-14T10:04:17;8.88;-6.00
19340;HTU21D;9804;52.350;6.684;2023-03-14T10:06:46;8.70;-6.00
19340;HTU21D;9804;52.350;6.684;2023-03-14T10:09:23;8.87;-6.00
19340;HTU21D;9804;52.350;6.684;2023-03-14T10:11:57;9.00;-6.00
19340;HTU21D;9804;52.350;6.684;2023-03-14T10:14:34;8.85;-6.00
19340;HTU21D;9804;52.350;6.684;2023-03-14T10:17:09;9.06;-6.00
19340;HTU21D;9804;52.350;6.684;2023-03-14T10:19:35;9.42;-6.00
19340;HTU21D;9804;52.350;6.684;2023-03-14T10:22:03;8.73;-6.00
19340;HTU21D;9804;52.350;6.684;2023-03-14T10:24:32;8.92;-6.00
19340;HTU21D;9804;52.350;6.684;2023-03-14T10:27:04;9.23;-6.00
19340;HTU21D;9804;52.350;6.684;2023-03-14T10:29:53;9.31;-6.00
19340;HTU21D;9804;52.350;6.684;2023-03-14T10:32:21;9.24;-6.00
19340;HTU21D;9804;52.350;6.684;2023-03-14T10:37:29;9.64;-6.00
19340;HTU21D;9804;52.350;6.684;2023-03-14T10:39:58;9.80;-6.00
19340;HTU21D;9804;52.350;6.684;2023-03-14T10:42:27;10.24;-6.00
19340;HTU21D;9804;52.350;6.684;2023-03-14T10:44:58;10.46;-6.00
19340;HTU21D;9804;52.350;6.684;2023-03-14T10:47:26;9.83;-6.00
19340;HTU21D;9804;52.350;6.684;2023-03-14T10:49:53;10.05;-6.00
19340;HTU21D;9804;52.350;6.684;2023-03-14T10:52:27;9.70;-6.00
19340;HTU21D;9804;52.350;6.684;2023-03-14T10:54:57;9.79;-6.00
19340;HTU21D;9804;52.350;6.684;2023-03-14T10:57:24;9.54;-6.00
19340;HTU21D;9804;52.350;6.684;2023-03-14T10:59:49;9.92;-6.00
19340;HTU21D;9804;52.350;6.684;2023-03-14T11:02:31;9.80;-6.00
19340;HTU21D;9804;52.350;6.684;2023-03-14T11:05:09;9.20;-6.00
19340;HTU21D;9804;52.350;6.684;2023-03-14T11:07:43;8.70;-6.00
19340;HTU21D;9804;52.350;6.684;2023-03-14T11:10:14;8.43;-6.00
19340;HTU21D;9804;52.350;6.684;2023-03-14T11:21:13;8.96;-6.00
19340;HTU21D;9804;52.350;6.684;2023-03-14T11:23:58;8.81;-6.00
19340;HTU21D;9804;52.350;6.684;2023-03-14T11:29:44;9.25;-6.00
19340;HTU21D;9804;52.350;6.684;2023-03-14T11:32:14;9.50;-6.00
19340;HTU21D;9804;52.350;6.684;2023-03-14T11:34:53;9.45;-6.00
19340;HTU21D;9804;52.350;6.684;2023-03-14T11:37:23;9.41;-6.00
19340;HTU21D;9804;52.350;6.684;2023-03-14T11:40:02;9.38;-6.00
19340;HTU21D;9804;52.350;6.684;2023-03-14T11:42:29;9.46;-6.00
19340;HTU21D;9804;52.350;6.684;2023-03-14T11:44:55;9.67;-6.00
19340;HTU21D;9804;52.350;6.684;2023-03-14T11:47:32;9.74;-6.00
19340;HTU21D;9804;52.350;6.684;2023-03-14T11:50:17;10.26;-6.00
19340;HTU21D;9804;52.350;6.684;2023-03-14T11:53:01;10.11;-6.00
19340;HTU21D;9804;52.350;6.684;2023-03-14T11:55:31;10.15;-6.00
19340;HTU21D;9804;52.350;6.684;2023-03-14T11:58:05;10.18;-6.00
19340;HTU21D;9804;52.350;6.684;2023-03-14T12:00:34;10.37;-6.00
19340;HTU21D;9804;52.350;6.684;2023-03-14T12:08:54;9.75;-6.00
19340;HTU21D;9804;52.350;6.684;2023-03-14T12:15:15;10.15;-6.00
19340;HTU21D;9804;52.350;6.684;2023-03-14T12:17:37;10.34;-6.00
19340;HTU21D;9804;52.350;6.684;2023-03-14T12:20:12;10.20;-6.00
19340;HTU21D;9804;52.350;6.684;2023-03-14T12:22:49;10.28;-6.00
19340;HTU21D;9804;52.350;6.684;2023-03-14T12:25:21;10.53;-6.00
19340;HTU21D;9804;52.350;6.684;2023-03-14T12:30:38;10.60;-6.00
19340;HTU21D;9804;52.350;6.684;2023-03-14T12:38:09;10.23;-6.00
19340;HTU21D;9804;52.350;6.684;2023-03-14T12:40:40;10.59;-6.00
19340;HTU21D;9804;52.350;6.684;2023-03-14T12:43:26;10.73;-6.00
19340;HTU21D;9804;52.350;6.684;2023-03-14T12:48:44;10.31;-6.00
19340;HTU21D;9804;52.350;6.684;2023-03-14T12:51:16;10.35;-6.00
19340;HTU21D;9804;52.350;6.684;2023-03-14T12:56:59;10.12;-6.00
19340;HTU21D;9804;52.350;6.684;2023-03-14T13:13:01;10.68;-6.00
19340;HTU21D;9804;52.350;6.684;2023-03-14T13:17:54;9.95;-6.00
19340;HTU21D;9804;52.350;6.684;2023-03-14T13:20:26;10.35;-6.00
19340;HTU21D;9804;52.350;6.684;2023-03-14T13:22:53;10.45;-6.00
19340;HTU21D;9804;52.350;6.684;2023-03-14T13:25:18;10.43;-6.00
19340;HTU21D;9804;52.350;6.684;2023-03-14T13:27:46;10.80;-6.00
19340;HTU21D;9804;52.350;6.684;2023-03-14T13:30:24;10.07;-6.00
19340;HTU21D;9804;52.350;6.684;2023-03-14T13:32:51;10.38;-6.00
19340;HTU21D;9804;52.350;6.684;2023-03-14T13:37:59;9.99;-6.00
19340;HTU21D;9804;52.350;6.684;2023-03-14T13:40:31;10.24;-6.00
19340;HTU21D;9804;52.350;6.684;2023-03-14T13:43:03;10.09;-6.00
19340;HTU21D;9804;52.350;6.684;2023-03-14T13:45:29;10.44;-6.00
19340;HTU21D;9804;52.350;6.684;2023-03-14T13:47:55;10.65;-6.00
19340;HTU21D;9804;52.350;6.684;2023-03-14T13:50:20;10.92;-6.00
19340;HTU21D;9804;52.350;6.684;2023-03-14T13:52:46;10.44;-6.00
19340;HTU21D;9804;52.350;6.684;2023-03-14T13:55:17;11.02;-6.00
19340;HTU21D;9804;52.350;6.684;2023-03-14T13:57:45;10.54;-6.00
19340;HTU21D;9804;52.350;6.684;2023-03-14T14:00:22;10.18;-6.00
19340;HTU21D;9804;52.350;6.684;2023-03-14T14:02:49;10.28;-6.00
19340;HTU21D;9804;52.350;6.684;2023-03-14T14:05:15;9.76;-6.00
19340;HTU21D;9804;52.350;6.684;2023-03-14T14:07:42;10.26;-6.00
19340;HTU21D;9804;52.350;6.684;2023-03-14T14:10:11;10.36;-6.00
19340;HTU21D;9804;52.350;6.684;2023-03-14T14:12:53;10.57;-6.00
19340;HTU21D;9804;52.350;6.684;2023-03-14T14:15:26;10.37;-6.00
19340;HTU21D;9804;52.350;6.684;2023-03-14T14:17:54;10.31;-6.00
19340;HTU21D;9804;52.350;6.684;2023-03-14T14:20:30;10.68;-6.00
19340;HTU21D;9804;52.350;6.684;2023-03-14T14:23:04;11.23;-6.00
19340;HTU21D;9804;52.350;6.684;2023-03-14T14:25:30;10.90;-6.00
19340;HTU21D;9804;52.350;6.684;2023-03-14T14:27:56;10.05;-6.00
19340;HTU21D;9804;52.350;6.684;2023-03-14T14:30:26;9.97;-6.00
19340;HTU21D;9804;52.350;6.684;2023-03-14T14:32:52;9.53;-6.00
19340;HTU21D;9804;52.350;6.684;2023-03-14T14:35:26;9.62;-6.00
19340;HTU21D;9804;52.350;6.684;2023-03-14T14:37:55;9.98;-6.00
19340;HTU21D;9804;52.350;6.684;2023-03-14T14:40:23;9.83;-6.00
19340;HTU21D;9804;52.350;6.684;2023-03-14T14:42:49;9.53;-6.00
19340;HTU21D;9804;52.350;6.684;2023-03-14T14:45:20;9.86;-6.00
19340;HTU21D;9804;52.350;6.684;2023-03-14T14:48:03;10.20;-6.00
19340;HTU21D;9804;52.350;6.684;2023-03-14T14:50:31;9.95;-6.00
19340;HTU21D;9804;52.350;6.684;2023-03-14T14:53:01;9.97;-6.00
19340;HTU21D;9804;52.350;6.684;2023-03-14T14:55:40;10.00;-6.00
19340;HTU21D;9804;52.350;6.684;2023-03-14T14:58:18;9.98;-6.00
19340;HTU21D;9804;52.350;6.684;2023-03-14T15:00:55;9.97;-6.00
19340;HTU21D;9804;52.350;6.684;2023-03-14T15:03:21;9.65;-6.00
19340;HTU21D;9804;52.350;6.684;2023-03-14T15:05:47;9.68;-6.00
19340;HTU21D;9804;52.350;6.684;2023-03-14T15:08:13;9.68;-6.00
19340;HTU21D;9804;52.350;6.684;2023-03-14T15:10:40;9.60;-6.00
19340;HTU21D;9804;52.350;6.684;2023-03-14T15:13:05;10.08;-6.00
19340;HTU21D;9804;52.350;6.684;2023-03-14T15:15:31;9.84;-6.00
19340;HTU21D;9804;52.350;6.684;2023-03-14T15:17:56;9.78;-6.00
19340;HTU21D;9804;52.350;6.684;2023-03-14T15:20:22;9.50;-6.00
19340;HTU21D;9804;52.350;6.684;2023-03-14T15:22:49;9.74;-6.00
19340;HTU21D;9804;52.350;6.684;2023-03-14T15:25:14;9.66;-6.00
19340;HTU21D;9804;52.350;6.684;2023-03-14T15:27:40;9.81;-6.00
19340;HTU21D;9804;52.350;6.684;2023-03-14T15:30:11;9.51;-6.00
19340;HTU21D;9804;52.350;6.684;2023-03-14T15:32:36;9.16;-6.00
19340;HTU21D;9804;52.350;6.684;2023-03-14T15:35:02;9.24;-6.00
19340;HTU21D;9804;52.350;6.684;2023-03-14T15:37:27;8.78;-6.00
19340;HTU21D;9804;52.350;6.684;2023-03-14T15:39:52;9.06;-6.00
19340;HTU21D;9804;52.350;6.684;2023-03-14T15:42:18;9.08;-6.00
19340;HTU21D;9804;52.350;6.684;2023-03-14T15:44:43;8.80;-6.00
19340;HTU21D;9804;52.350;6.684;2023-03-14T15:47:10;8.92;-6.00
19340;HTU21D;9804;52.350;6.684;2023-03-14T15:49:35;8.77;-6.00
19340;HTU21D;9804;52.350;6.684;2023-03-14T15:52:01;8.93;-6.00
19340;HTU21D;9804;52.350;6.684;2023-03-14T15:54:27;8.95;-6.00
19340;HTU21D;9804;52.350;6.684;2023-03-14T15:56:57;8.86;-6.00
19340;HTU21D;9804;52.350;6.684;2023-03-14T15:59:23;8.76;-6.00
19340;HTU21D;9804;52.350;6.684;2023-03-14T16:01:49;8.76;-6.00
19340;HTU21D;9804;52.350;6.684;2023-03-14T16:04:14;8.96;-6.00
19340;HTU21D;9804;52.350;6.684;2023-03-14T16:06:40;8.76;-6.00
19340;HTU21D;9804;52.350;6.684;2023-03-14T16:09:06;8.61;-6.00
19340;HTU21D;9804;52.350;6.684;2023-03-14T16:11:32;8.81;-6.00
19340;HTU21D;9804;52.350;6.684;2023-03-14T16:13:58;8.49;-6.00
19340;HTU21D;9804;52.350;6.684;2023-03-14T16:16:23;8.81;-6.00
19340;HTU21D;9804;52.350;6.684;2023-03-14T16:18:48;9.05;-6.00
19340;HTU21D;9804;52.350;6.684;2023-03-14T16:21:16;8.83;-6.00
19340;HTU21D;9804;52.350;6.684;2023-03-14T16:23:42;8.94;-6.00
19340;HTU21D;9804;52.350;6.684;2023-03-14T16:26:11;9.15;-6.00
19340;HTU21D;9804;52.350;6.684;2023-03-14T16:28:37;8.95;-6.00
19340;HTU21D;9804;52.350;6.684;2023-03-14T16:31:05;9.39;-6.00
19340;HTU21D;9804;52.350;6.684;2023-03-14T16:33:31;8.92;-6.00
19340;HTU21D;9804;52.350;6.684;2023-03-14T16:35:59;8.94;-6.00
19340;HTU21D;9804;52.350;6.684;2023-03-14T16:38:36;9.26;-6.00